Time;durP1;ratioP1;P1;durP2;ratioP2;P2;SDS_P1;SDS_P2;PMS_P1;PMS_P2;Temp;Humidity;BMP_temperature;BMP_pressure;BME280_temperature;BME280_humidity;BME280_pressure;Samples;Min_cycle;Max_cycle;Signal;HPM_P1;HPM_P2
2022/04/09 00:00:43;;;;;;;10.37;7.13;;;;;;;;;;5063011;28;20177;-79
2022/04/09 00:03:10;;;;;;;10.20;7.57;;;;;;;;;;5062709;28;20193;-79
2022/04/09 00:05:36;;;;;;;9.57;7.47;;;;;;;;;;5069224;28;20660;-79
2022/04/09 00:08:02;;;;;;;11.50;8.47;;;;;;;;;;5060563;28;20177;-79
2022/04/09 00:10:28;;;;;;;10.53;8.07;;;;;;;;;;5061838;28;20560;-79
2022/04/09 00:12:54;;;;;;;12.07;8.40;;;;;;;;;;5053293;28;20269;-79
2022/04/09 00:15:21;;;;;;;11.07;8.30;;;;;;;;;;5064889;28;20331;-79
2022/04/09 00:17:47;;;;;;;11.37;8.60;;;;;;;;;;5067015;28;20220;-79
2022/04/09 00:20:15;;;;;;;12.73;9.10;;;;;;;;;;5054375;28;20186;-79
2022/04/09 00:22:42;;;;;;;12.43;8.63;;;;;;;;;;5050559;28;20208;-79
2022/04/09 00:25:09;;;;;;;11.17;8.20;;;;;;;;;;5061694;28;20200;-79
2022/04/09 00:27:36;;;;;;;11.10;8.27;;;;;;;;;;5069131;28;20166;-79
2022/04/09 00:30:03;;;;;;;13.17;8.27;;;;;;;;;;5061279;28;20196;-79
2022/04/09 00:32:29;;;;;;;13.03;8.10;;;;;;;;;;5072614;28;20180;-79
2022/04/09 00:34:55;;;;;;;13.30;8.57;;;;;;;;;;5078319;28;20656;-79
2022/04/09 00:37:22;;;;;;;13.20;9.70;;;;;;;;;;5058491;28;20182;-79
2022/04/09 00:39:50;;;;;;;11.73;8.63;;;;;;;;;;5072198;28;20181;-79
2022/04/09 00:42:18;;;;;;;11.57;8.17;;;;;;;;;;5067564;28;20185;-79
2022/04/09 00:44:45;;;;;;;11.77;8.73;;;;;;;;;;5064095;28;20212;-78
2022/04/09 00:47:11;;;;;;;14.83;9.40;;;;;;;;;;5062469;28;20184;-79
2022/04/09 00:49:38;;;;;;;12.73;9.13;;;;;;;;;;5069964;28;20216;-79
2022/04/09 00:52:05;;;;;;;14.23;10.00;;;;;;;;;;5033420;28;20217;-78
2022/04/09 00:54:32;;;;;;;14.73;9.80;;;;;;;;;;5035253;28;20688;-79
2022/04/09 00:57:03;;;;;;;13.97;9.23;;;;;;;;;;5068631;28;20180;-79
2022/04/09 00:59:30;;;;;;;13.13;9.93;;;;;;;;;;5063620;28;20569;-78
2022/04/09 01:01:56;;;;;;;14.23;10.60;;;;;;;;;;5062014;28;20185;-78
2022/04/09 01:04:24;;;;;;;16.07;11.10;;;;;;;;;;5039088;28;20282;-79
2022/04/09 01:06:50;;;;;;;14.93;10.17;;;;;;;;;;5052918;28;20200;-78
2022/04/09 01:09:16;;;;;;;14.17;10.00;;;;;;;;;;5058241;28;20192;-79
2022/04/09 01:11:43;;;;;;;14.13;10.17;;;;;;;;;;5062161;28;20185;-78
2022/04/09 01:14:13;;;;;;;14.63;10.63;;;;;;;;;;5071326;28;20192;-78
2022/04/09 01:16:40;;;;;;;16.13;11.20;;;;;;;;;;5033501;28;20189;-79
2022/04/09 01:19:06;;;;;;;13.93;10.10;;;;;;;;;;5036117;28;20194;-79
2022/04/09 01:21:39;;;;;;;15.63;10.83;;;;;;;;;;5065989;28;20181;-79
2022/04/09 01:24:05;;;;;;;15.40;10.67;;;;;;;;;;5063329;28;20208;-78
2022/04/09 01:26:35;;;;;;;16.67;10.93;;;;;;;;;;5078928;28;20181;-78
2022/04/09 01:29:03;;;;;;;16.53;10.80;;;;;;;;;;5064672;28;20177;-78
2022/04/09 01:31:29;;;;;;;18.50;12.07;;;;;;;;;;5049900;28;20201;-79
2022/04/09 01:33:55;;;;;;;15.87;10.90;;;;;;;;;;5057036;28;20194;-78
2022/04/09 01:36:22;;;;;;;20.43;12.37;;;;;;;;;;5057780;28;20207;-79
2022/04/09 01:38:48;;;;;;;17.70;11.00;;;;;;;;;;5066529;28;20632;-78
2022/04/09 01:41:15;;;;;;;17.43;12.47;;;;;;;;;;5045825;28;20598;-79
2022/04/09 01:43:50;;;;;;;17.30;11.70;;;;;;;;;;5052300;28;20206;-78
2022/04/09 01:46:16;;;;;;;15.87;11.23;;;;;;;;;;5059880;28;20224;-78
2022/04/09 01:48:43;;;;;;;18.73;12.27;;;;;;;;;;5047703;28;20652;-78
2022/04/09 01:51:09;;;;;;;16.03;11.23;;;;;;;;;;5061802;28;20177;-78
2022/04/09 01:53:36;;;;;;;16.00;10.57;;;;;;;;;;5054959;28;20714;-78
2022/04/09 01:56:07;;;;;;;19.63;12.30;;;;;;;;;;5073330;28;20759;-78
2022/04/09 01:58:37;;;;;;;18.30;12.30;;;;;;;;;;5062524;28;20189;-78
2022/04/09 02:01:03;;;;;;;19.37;12.83;;;;;;;;;;5062768;28;20208;-78
2022/04/09 02:03:31;;;;;;;23.33;14.33;;;;;;;;;;5065375;28;20207;-78
2022/04/09 02:05:57;;;;;;;23.07;13.93;;;;;;;;;;5070683;28;20220;-78
2022/04/09 02:08:25;;;;;;;19.93;13.13;;;;;;;;;;5065773;28;20278;-78
2022/04/09 02:10:51;;;;;;;20.90;12.57;;;;;;;;;;5071332;28;20185;-78
2022/04/09 02:13:18;;;;;;;18.40;11.97;;;;;;;;;;5058316;28;20177;-78
2022/04/09 02:15:45;;;;;;;17.07;12.00;;;;;;;;;;5059006;28;20578;-78
2022/04/09 02:18:12;;;;;;;16.13;10.73;;;;;;;;;;5046120;28;20691;-78
2022/04/09 02:20:38;;;;;;;17.23;11.97;;;;;;;;;;5046492;28;20279;-78
2022/04/09 02:23:05;;;;;;;14.50;9.80;;;;;;;;;;5066311;28;20212;-78
2022/04/09 02:25:31;;;;;;;14.17;10.50;;;;;;;;;;5056992;28;20201;-79
2022/04/09 02:27:58;;;;;;;16.03;10.33;;;;;;;;;;5070852;28;20192;-78
2022/04/09 02:30:25;;;;;;;14.90;10.07;;;;;;;;;;5059590;28;20179;-78
2022/04/09 02:32:57;;;;;;;15.07;9.90;;;;;;;;;;5060386;28;20268;-78
2022/04/09 02:35:28;;;;;;;16.00;10.43;;;;;;;;;;5065329;28;20208;-78
2022/04/09 02:37:55;;;;;;;16.17;10.97;;;;;;;;;;5062341;28;20187;-78
2022/04/09 02:40:22;;;;;;;15.50;10.23;;;;;;;;;;5051932;28;20519;-78
2022/04/09 02:42:51;;;;;;;16.63;10.20;;;;;;;;;;5055377;28;20208;-78
2022/04/09 02:45:17;;;;;;;15.23;10.27;;;;;;;;;;5046963;28;20966;-78
2022/04/09 02:47:44;;;;;;;17.93;11.10;;;;;;;;;;5042212;28;20185;-78
2022/04/09 02:50:15;;;;;;;17.20;11.20;;;;;;;;;;5044590;28;20174;-78
2022/04/09 02:52:42;;;;;;;17.80;11.27;;;;;;;;;;5050043;28;20264;-78
2022/04/09 02:55:11;;;;;;;16.33;11.20;;;;;;;;;;5074141;28;20202;-78
2022/04/09 02:57:39;;;;;;;16.83;10.63;;;;;;;;;;5047485;28;20186;-78
2022/04/09 03:00:12;;;;;;;16.50;11.27;;;;;;;;;;5052721;28;20196;-78
2022/04/09 03:02:39;;;;;;;16.87;10.67;;;;;;;;;;5066224;28;20187;-78
2022/04/09 03:05:08;;;;;;;18.17;11.03;;;;;;;;;;5047204;28;20209;-78
2022/04/09 03:07:34;;;;;;;17.20;11.43;;;;;;;;;;5053950;28;20700;-78
2022/04/09 03:10:00;;;;;;;18.60;11.77;;;;;;;;;;5069624;28;20177;-78
2022/04/09 03:12:26;;;;;;;16.27;11.70;;;;;;;;;;5058205;28;20174;-78
2022/04/09 03:14:53;;;;;;;17.43;11.60;;;;;;;;;;5043156;28;20241;-76
2022/04/09 03:17:19;;;;;;;17.57;11.73;;;;;;;;;;5053982;28;20260;-76
2022/04/09 03:19:46;;;;;;;15.80;11.23;;;;;;;;;;5049065;28;20190;-76
2022/04/09 03:22:14;;;;;;;17.30;11.93;;;;;;;;;;5031106;28;20274;-76
2022/04/09 03:24:42;;;;;;;19.17;12.77;;;;;;;;;;5048208;28;20297;-76
2022/04/09 03:27:11;;;;;;;18.33;11.83;;;;;;;;;;5058254;28;20209;-76
2022/04/09 03:29:39;;;;;;;21.90;12.93;;;;;;;;;;5053972;28;20565;-78
2022/04/09 03:32:06;;;;;;;19.60;12.80;;;;;;;;;;5059400;28;20535;-78
2022/04/09 03:34:34;;;;;;;19.40;13.07;;;;;;;;;;5041900;28;20233;-78
2022/04/09 03:37:02;;;;;;;21.23;13.80;;;;;;;;;;5053621;28;20696;-78
2022/04/09 03:39:30;;;;;;;20.60;12.87;;;;;;;;;;5058797;28;20265;-76
2022/04/09 03:41:57;;;;;;;19.33;12.57;;;;;;;;;;5050929;28;20264;-76
2022/04/09 03:44:23;;;;;;;23.37;13.80;;;;;;;;;;5064411;28;20232;-76
2022/04/09 03:46:59;;;;;;;21.57;14.23;;;;;;;;;;5053616;28;20526;-76
2022/04/09 03:49:26;;;;;;;22.30;14.07;;;;;;;;;;5060244;28;20179;-76
2022/04/09 03:51:52;;;;;;;19.27;12.67;;;;;;;;;;5034796;28;20731;-78
2022/04/09 03:54:21;;;;;;;24.00;14.57;;;;;;;;;;5039351;28;20189;-78
2022/04/09 03:56:49;;;;;;;20.97;13.97;;;;;;;;;;5049046;28;20185;-78
2022/04/09 03:59:17;;;;;;;19.77;13.13;;;;;;;;;;5048125;28;20238;-78
2022/04/09 04:01:47;;;;;;;21.67;14.33;;;;;;;;;;5039732;28;20213;-78
2022/04/09 04:04:14;;;;;;;20.93;13.77;;;;;;;;;;5028779;28;20197;-78
2022/04/09 04:06:44;;;;;;;24.57;14.93;;;;;;;;;;5051898;28;20491;-78
2022/04/09 04:09:12;;;;;;;21.10;13.73;;;;;;;;;;5041358;28;20876;-78
2022/04/09 04:11:39;;;;;;;24.70;14.40;;;;;;;;;;5058764;28;20573;-78
2022/04/09 04:14:05;;;;;;;18.93;13.00;;;;;;;;;;5064445;28;20185;-78
2022/04/09 04:16:33;;;;;;;21.60;14.33;;;;;;;;;;5038759;28;20178;-78
2022/04/09 04:18:59;;;;;;;22.90;14.03;;;;;;;;;;5044413;28;20193;-78
2022/04/09 04:21:26;;;;;;;19.10;13.13;;;;;;;;;;5047708;28;20184;-78
2022/04/09 04:24:00;;;;;;;19.80;12.97;;;;;;;;;;5063444;28;20210;-79
2022/04/09 04:26:27;;;;;;;21.17;13.43;;;;;;;;;;5049361;28;20200;-79
2022/04/09 04:28:57;;;;;;;20.90;13.87;;;;;;;;;;5047964;28;20231;-79
2022/04/09 04:31:25;;;;;;;21.20;13.77;;;;;;;;;;5046682;28;20186;-79
2022/04/09 04:33:53;;;;;;;25.30;16.87;;;;;;;;;;5039015;28;20277;-80
2022/04/09 04:36:19;;;;;;;23.97;16.13;;;;;;;;;;5066229;28;20196;-79
2022/04/09 04:38:47;;;;;;;22.57;15.63;;;;;;;;;;5065188;28;20192;-78
2022/04/09 04:41:13;;;;;;;20.00;13.53;;;;;;;;;;5072763;28;20177;-79
2022/04/09 04:43:40;;;;;;;22.37;14.20;;;;;;;;;;5047172;28;20212;-78
2022/04/09 04:46:07;;;;;;;20.33;13.13;;;;;;;;;;5081002;28;20208;-76
2022/04/09 04:48:35;;;;;;;21.13;13.50;;;;;;;;;;5060927;28;20208;-77
2022/04/09 04:51:04;;;;;;;20.87;12.77;;;;;;;;;;5054014;28;20260;-78
2022/04/09 04:53:33;;;;;;;23.43;14.00;;;;;;;;;;5054328;28;20731;-79
2022/04/09 04:56:02;;;;;;;20.80;13.30;;;;;;;;;;5047452;28;20210;-78
2022/04/09 04:58:36;;;;;;;21.20;14.07;;;;;;;;;;5048972;28;20280;-79
2022/04/09 05:01:07;;;;;;;19.07;13.20;;;;;;;;;;5054284;28;20604;-77
2022/04/09 05:03:37;;;;;;;21.53;12.80;;;;;;;;;;5058770;28;20738;-76
2022/04/09 05:06:17;;;;;;;19.67;12.40;;;;;;;;;;5053291;28;20701;-78
2022/04/09 05:08:44;;;;;;;19.97;11.87;;;;;;;;;;5048687;28;20191;-78
2022/04/09 05:11:16;;;;;;;18.73;11.77;;;;;;;;;;5047611;28;20174;-79
2022/04/09 05:13:43;;;;;;;16.97;11.67;;;;;;;;;;5056031;28;20181;-78
2022/04/09 05:16:11;;;;;;;20.30;12.23;;;;;;;;;;5056183;28;20205;-79
2022/04/09 05:18:45;;;;;;;18.30;12.37;;;;;;;;;;5055783;28;20192;-79
2022/04/09 05:21:11;;;;;;;18.93;12.00;;;;;;;;;;5069604;28;20244;-79
2022/04/09 05:23:38;;;;;;;21.63;13.63;;;;;;;;;;5069553;28;20226;-79
2022/04/09 05:26:04;;;;;;;17.27;11.23;;;;;;;;;;5050168;28;20255;-79
2022/04/09 05:28:31;;;;;;;18.13;11.40;;;;;;;;;;5051510;28;20219;-79
2022/04/09 05:30:57;;;;;;;20.73;12.30;;;;;;;;;;5049041;28;20585;-76
2022/04/09 05:33:23;;;;;;;15.90;11.47;;;;;;;;;;5052267;28;20234;-77
2022/04/09 05:35:56;;;;;;;18.70;11.37;;;;;;;;;;5020608;28;20205;-77
2022/04/09 05:38:22;;;;;;;15.37;10.57;;;;;;;;;;5052356;28;20645;-77
2022/04/09 05:40:49;;;;;;;14.77;10.90;;;;;;;;;;5054308;28;20258;-77
2022/04/09 05:43:19;;;;;;;15.67;10.70;;;;;;;;;;5067277;28;20282;-79
2022/04/09 05:45:48;;;;;;;18.77;10.50;;;;;;;;;;5052720;28;20212;-79
2022/04/09 05:48:17;;;;;;;17.93;11.67;;;;;;;;;;5053024;28;20196;-79
2022/04/09 05:50:55;;;;;;;15.33;10.63;;;;;;;;;;5024727;28;20298;-79
2022/04/09 05:53:24;;;;;;;14.83;10.20;;;;;;;;;;5036183;28;20219;-78
2022/04/09 05:55:52;;;;;;;16.83;10.50;;;;;;;;;;5050088;28;20286;-79
2022/04/09 05:58:19;;;;;;;17.13;10.90;;;;;;;;;;5068689;28;20197;-79
2022/04/09 06:00:49;;;;;;;16.20;11.23;;;;;;;;;;5046032;28;20307;-78
2022/04/09 06:03:23;;;;;;;14.10;10.33;;;;;;;;;;5049486;28;20205;-79
2022/04/09 06:05:50;;;;;;;17.67;11.13;;;;;;;;;;5055341;28;20193;-79
2022/04/09 06:08:34;;;;;;;12.63;9.60;;;;;;;;;;5055032;28;20584;-79
2022/04/09 06:11:05;;;;;;;14.47;9.67;;;;;;;;;;5038816;28;20193;-79
2022/04/09 06:13:32;;;;;;;18.50;10.60;;;;;;;;;;5036900;28;21167;-79
2022/04/09 06:15:59;;;;;;;14.90;10.93;;;;;;;;;;5051114;28;20202;-79
2022/04/09 06:18:28;;;;;;;16.07;10.97;;;;;;;;;;5037709;28;20283;-78
2022/04/09 06:20:54;;;;;;;15.00;10.50;;;;;;;;;;5042577;28;21797;-79
2022/04/09 06:23:21;;;;;;;13.97;10.53;;;;;;;;;;5051978;28;20726;-79
2022/04/09 06:25:47;;;;;;;14.73;10.20;;;;;;;;;;5051335;28;20259;-79
2022/04/09 06:28:16;;;;;;;13.60;9.87;;;;;;;;;;5042971;28;20238;-79
2022/04/09 06:30:45;;;;;;;12.80;9.43;;;;;;;;;;5048845;28;20183;-78
2022/04/09 06:33:21;;;;;;;16.80;10.17;;;;;;;;;;5050091;28;20181;-77
2022/04/09 06:35:48;;;;;;;13.03;9.80;;;;;;;;;;5056264;28;20330;-76
2022/04/09 06:38:18;;;;;;;13.63;9.80;;;;;;;;;;5052401;28;20197;-76
2022/04/09 06:40:44;;;;;;;13.83;9.37;;;;;;;;;;5054136;28;20220;-76
2022/04/09 06:43:14;;;;;;;15.57;9.70;;;;;;;;;;5040959;28;20251;-77
2022/04/09 06:46:03;;;;;;;12.80;9.60;;;;;;;;;;5034164;28;20221;-77
2022/04/09 06:48:49;;;;;;;14.63;9.87;;;;;;;;;;5046957;28;20250;-77
2022/04/09 06:51:42;;;;;;;13.83;10.23;;;;;;;;;;5048529;28;20189;-77
2022/04/09 06:54:20;;;;;;;12.40;9.13;;;;;;;;;;5048340;28;20186;-77
2022/04/09 06:56:47;;;;;;;13.87;9.57;;;;;;;;;;5049512;28;20355;-77
2022/04/09 06:59:13;;;;;;;11.43;9.60;;;;;;;;;;5050816;28;20562;-77
2022/04/09 07:01:40;;;;;;;16.50;10.23;;;;;;;;;;5076051;28;20276;-77
2022/04/09 07:04:06;;;;;;;16.57;10.93;;;;;;;;;;5056031;28;20197;-77
2022/04/09 07:06:32;;;;;;;14.63;10.90;;;;;;;;;;5069536;28;20207;-76
2022/04/09 07:08:58;;;;;;;15.20;10.13;;;;;;;;;;5071400;28;20534;-77
2022/04/09 07:11:24;;;;;;;15.87;11.40;;;;;;;;;;5064988;28;20226;-77
2022/04/09 07:13:51;;;;;;;18.17;11.60;;;;;;;;;;5062729;28;20236;-77
2022/04/09 07:16:17;;;;;;;17.83;11.50;;;;;;;;;;5059117;28;20205;-77
2022/04/09 07:18:43;;;;;;;20.37;11.87;;;;;;;;;;5059944;28;20200;-77
2022/04/09 07:21:10;;;;;;;17.70;12.53;;;;;;;;;;5042772;28;20190;-77
2022/04/09 07:23:36;;;;;;;17.97;11.33;;;;;;;;;;5059981;28;20194;-77
2022/04/09 07:26:02;;;;;;;16.00;11.13;;;;;;;;;;5063384;28;20202;-78
2022/04/09 07:28:28;;;;;;;15.17;10.57;;;;;;;;;;5070382;28;20224;-77
2022/04/09 07:30:54;;;;;;;17.50;10.87;;;;;;;;;;5070087;28;20552;-77
2022/04/09 07:33:20;;;;;;;15.97;11.47;;;;;;;;;;5069604;28;20264;-77
2022/04/09 07:35:46;;;;;;;15.23;11.37;;;;;;;;;;5073897;28;20288;-79
2022/04/09 07:38:13;;;;;;;16.10;10.73;;;;;;;;;;5054862;28;20609;-78
2022/04/09 07:40:39;;;;;;;15.07;11.20;;;;;;;;;;5054020;28;20181;-76
2022/04/09 07:43:05;;;;;;;17.87;11.03;;;;;;;;;;5057606;28;21002;-77
2022/04/09 07:45:31;;;;;;;16.83;11.50;;;;;;;;;;5062099;28;20208;-78
2022/04/09 07:47:58;;;;;;;19.83;11.63;;;;;;;;;;5066469;28;20190;-78
2022/04/09 07:50:25;;;;;;;19.37;11.73;;;;;;;;;;5034713;28;20831;-78
2022/04/09 07:52:52;;;;;;;17.90;11.60;;;;;;;;;;5070641;28;20201;-78
2022/04/09 07:55:19;;;;;;;16.23;11.03;;;;;;;;;;5069647;28;20206;-78
2022/04/09 07:57:46;;;;;;;19.90;11.80;;;;;;;;;;5060062;28;20248;-78
2022/04/09 08:00:14;;;;;;;13.73;10.77;;;;;;;;;;5039058;28;20640;-77
2022/04/09 08:02:40;;;;;;;15.23;10.60;;;;;;;;;;5067273;28;20177;-77
2022/04/09 08:05:07;;;;;;;14.90;10.93;;;;;;;;;;5060353;28;20201;-77
2022/04/09 08:07:33;;;;;;;17.27;11.50;;;;;;;;;;5058299;28;20637;-77
2022/04/09 08:09:59;;;;;;;18.80;13.43;;;;;;;;;;5052217;28;20272;-78
2022/04/09 08:12:26;;;;;;;16.23;12.93;;;;;;;;;;5041781;28;20181;-77
2022/04/09 08:14:52;;;;;;;17.33;12.37;;;;;;;;;;5057755;28;20209;-78
2022/04/09 08:17:20;;;;;;;18.67;13.07;;;;;;;;;;5053451;28;20186;-77
2022/04/09 08:19:47;;;;;;;20.77;13.90;;;;;;;;;;5053622;28;20741;-77
2022/04/09 08:22:13;;;;;;;19.77;13.40;;;;;;;;;;5068396;28;20609;-77
2022/04/09 08:24:41;;;;;;;16.67;12.20;;;;;;;;;;5070100;28;20211;-77
2022/04/09 08:27:08;;;;;;;17.70;12.47;;;;;;;;;;5047861;28;20181;-77
2022/04/09 08:29:36;;;;;;;16.90;12.33;;;;;;;;;;5053525;28;20260;-78
2022/04/09 08:32:04;;;;;;;17.70;12.50;;;;;;;;;;5068420;28;20172;-78
2022/04/09 08:34:33;;;;;;;18.67;12.33;;;;;;;;;;5073772;28;20197;-78
2022/04/09 08:37:00;;;;;;;18.03;12.27;;;;;;;;;;5068106;28;20636;-77
2022/04/09 08:39:26;;;;;;;21.07;13.40;;;;;;;;;;5070086;28;20197;-78
2022/04/09 08:41:53;;;;;;;16.83;11.90;;;;;;;;;;5070488;28;20247;-78
2022/04/09 08:44:21;;;;;;;20.83;12.70;;;;;;;;;;5088419;28;20290;-78
2022/04/09 08:46:48;;;;;;;19.67;13.10;;;;;;;;;;5061406;28;20177;-78
2022/04/09 08:49:14;;;;;;;16.97;12.47;;;;;;;;;;5070525;28;20177;-78
2022/04/09 08:51:41;;;;;;;20.83;13.03;;;;;;;;;;5052493;28;20192;-79
2022/04/09 08:54:08;;;;;;;17.53;12.20;;;;;;;;;;5069690;28;20177;-79
2022/04/09 08:58:32;;;;;;;17.70;11.30;;;;;;;;;;5066001;28;20576;-78
2022/04/09 09:00:58;;;;;;;17.97;11.97;;;;;;;;;;5064316;28;20177;-81
2022/04/09 09:03:24;;;;;;;17.13;10.87;;;;;;;;;;5044026;28;20202;-84
2022/04/09 09:05:52;;;;;;;15.83;11.60;;;;;;;;;;5023728;28;20210;-78
2022/04/09 09:08:41;;;;;;;18.93;10.97;;;;;;;;;;5046937;28;20178;-77
2022/04/09 09:11:07;;;;;;;13.50;9.50;;;;;;;;;;5040407;28;20208;-78
2022/04/09 09:13:53;;;;;;;18.17;11.40;;;;;;;;;;5043483;28;20209;-79
2022/04/09 09:16:23;;;;;;;17.70;10.73;;;;;;;;;;5040887;28;20209;-80
2022/04/09 09:18:51;;;;;;;20.17;10.47;;;;;;;;;;5039946;28;20178;-79
2022/04/09 09:21:19;;;;;;;12.50;8.57;;;;;;;;;;5046800;28;20178;-79
2022/04/09 09:23:45;;;;;;;13.73;8.30;;;;;;;;;;5037030;28;20207;-80
2022/04/09 09:26:20;;;;;;;11.93;7.70;;;;;;;;;;5044409;28;20178;-78
2022/04/09 09:28:53;;;;;;;13.50;7.80;;;;;;;;;;5043289;28;20189;-78
2022/04/09 09:31:19;;;;;;;13.13;7.80;;;;;;;;;;5043902;28;20190;-78
2022/04/09 09:33:50;;;;;;;13.17;6.83;;;;;;;;;;5041007;28;20233;-78
2022/04/09 09:36:31;;;;;;;13.47;7.67;;;;;;;;;;5045826;28;20601;-78
2022/04/09 09:39:02;;;;;;;12.90;6.70;;;;;;;;;;5041929;28;20269;-78
2022/04/09 09:41:28;;;;;;;15.80;7.23;;;;;;;;;;5043021;28;20247;-78
2022/04/09 09:44:05;;;;;;;12.47;7.67;;;;;;;;;;5037493;28;20221;-78
2022/04/09 09:46:31;;;;;;;12.10;6.60;;;;;;;;;;5040822;28;20289;-78
2022/04/09 09:48:58;;;;;;;12.90;6.40;;;;;;;;;;5046037;28;20178;-78
2022/04/09 09:51:25;;;;;;;9.73;6.13;;;;;;;;;;5043406;28;20182;-78
2022/04/09 09:54:04;;;;;;;12.93;6.60;;;;;;;;;;5037439;28;20226;-78
2022/04/09 09:56:35;;;;;;;12.40;7.43;;;;;;;;;;5039253;28;20224;-78
2022/04/09 09:59:02;;;;;;;13.03;6.63;;;;;;;;;;5034366;28;20192;-78
2022/04/09 10:01:29;;;;;;;12.37;7.37;;;;;;;;;;5034069;28;20214;-78
2022/04/09 10:03:55;;;;;;;9.47;6.17;;;;;;;;;;5044098;28;20198;-78
2022/04/09 10:06:21;;;;;;;12.33;6.63;;;;;;;;;;5048142;28;20643;-78
2022/04/09 10:08:48;;;;;;;10.87;5.93;;;;;;;;;;5037827;28;20171;-78
2022/04/09 10:11:17;;;;;;;15.77;6.43;;;;;;;;;;5030039;28;20816;-78
2022/04/09 10:13:47;;;;;;;10.87;5.37;;;;;;;;;;5011840;28;20267;-78
2022/04/09 10:16:21;;;;;;;11.40;6.10;;;;;;;;;;5024135;28;20309;-78
2022/04/09 10:18:50;;;;;;;16.03;6.30;;;;;;;;;;5013171;28;20178;-79
2022/04/09 10:21:19;;;;;;;12.77;5.53;;;;;;;;;;5030837;28;20666;-79
2022/04/09 10:23:46;;;;;;;11.63;6.00;;;;;;;;;;5025668;28;20194;-78
2022/04/09 10:26:13;;;;;;;10.73;6.07;;;;;;;;;;5036446;28;20230;-78
2022/04/09 10:28:40;;;;;;;10.43;5.70;;;;;;;;;;5034987;28;20185;-78
2022/04/09 10:31:24;;;;;;;10.43;5.43;;;;;;;;;;5020775;28;20178;-78
2022/04/09 10:33:57;;;;;;;11.30;5.60;;;;;;;;;;5020051;28;20198;-78
2022/04/09 10:36:42;;;;;;;9.73;4.90;;;;;;;;;;5037141;28;20317;-79
2022/04/09 10:39:29;;;;;;;8.63;5.00;;;;;;;;;;5035267;28;20193;-81
2022/04/09 10:41:59;;;;;;;12.83;5.53;;;;;;;;;;5036157;28;20244;-82
2022/04/09 10:44:43;;;;;;;9.33;4.83;;;;;;;;;;5036649;28;20187;-86
2022/04/09 10:47:15;;;;;;;10.50;4.53;;;;;;;;;;5035631;28;20186;-80
2022/04/09 10:49:42;;;;;;;13.87;4.83;;;;;;;;;;5020650;28;20190;-79
2022/04/09 10:52:17;;;;;;;9.43;4.83;;;;;;;;;;5036216;28;20273;-80
2022/04/09 10:55:02;;;;;;;9.80;4.73;;;;;;;;;;5036594;28;20170;-80
2022/04/09 10:57:28;;;;;;;8.53;4.23;;;;;;;;;;5051290;28;20214;-81
2022/04/09 11:00:00;;;;;;;11.27;4.90;;;;;;;;;;5019783;28;20195;-79
2022/04/09 11:02:26;;;;;;;10.40;5.07;;;;;;;;;;5034576;28;20198;-80
2022/04/09 11:04:53;;;;;;;10.30;4.33;;;;;;;;;;5034971;28;20189;-80
2022/04/09 11:07:23;;;;;;;11.80;4.90;;;;;;;;;;5035742;28;20262;-81
2022/04/09 11:09:59;;;;;;;9.53;4.50;;;;;;;;;;5034986;28;20650;-80
2022/04/09 11:12:29;;;;;;;8.50;4.30;;;;;;;;;;5001420;28;20853;-81
2022/04/09 11:14:59;;;;;;;10.13;4.50;;;;;;;;;;5039398;28;20167;-79
2022/04/09 11:17:25;;;;;;;12.03;4.23;;;;;;;;;;5002308;28;20222;-79
2022/04/09 11:19:52;;;;;;;8.63;3.97;;;;;;;;;;5034420;28;20175;-79
2022/04/09 11:22:18;;;;;;;10.23;3.57;;;;;;;;;;5034010;28;20711;-79
2022/04/09 11:24:45;;;;;;;9.10;4.20;;;;;;;;;;5018460;28;20159;-79
2022/04/09 11:27:11;;;;;;;8.87;4.50;;;;;;;;;;5033830;28;20193;-79
2022/04/09 11:29:38;;;;;;;11.37;4.57;;;;;;;;;;5018076;28;20179;-79
2022/04/09 11:32:04;;;;;;;8.17;4.47;;;;;;;;;;5034874;28;20198;-79
2022/04/09 11:34:46;;;;;;;10.97;4.40;;;;;;;;;;5034330;28;20186;-79
2022/04/09 11:37:12;;;;;;;9.53;4.10;;;;;;;;;;5035984;28;20186;-79
2022/04/09 11:39:45;;;;;;;9.80;4.17;;;;;;;;;;5019122;28;20179;-79
2022/04/09 11:42:12;;;;;;;8.53;3.80;;;;;;;;;;5033930;28;20208;-79
2022/04/09 11:44:39;;;;;;;7.43;3.13;;;;;;;;;;5035069;28;20677;-79
2022/04/09 11:47:13;;;;;;;8.30;3.63;;;;;;;;;;5018164;28;20179;-80
2022/04/09 11:49:40;;;;;;;10.43;3.47;;;;;;;;;;5034587;28;20213;-85
2022/04/09 11:52:07;;;;;;;8.77;3.33;;;;;;;;;;5018223;28;20690;-80
2022/04/09 11:54:38;;;;;;;8.40;3.57;;;;;;;;;;5010131;28;20198;-86
2022/04/09 11:57:10;;;;;;;7.73;3.33;;;5.90;99.90;;;;;;5005952;28;20218;-80
2022/04/09 11:59:37;;;;;;;9.10;3.13;;;11.80;64.50;;;;;;5033877;28;20244;-85
2022/04/09 12:02:03;;;;;;;6.97;3.20;;;11.90;60.40;;;;;;5034837;28;20671;-80
2022/04/09 12:04:34;;;;;;;6.53;3.00;;;11.90;60.80;;;;;;5015038;28;20171;-84
2022/04/09 12:07:02;;;;;;;6.63;2.90;;;12.10;58.90;;;;;;4994424;28;20651;-81
2022/04/09 12:09:28;;;;;;;7.53;3.07;;;12.30;57.90;;;;;;5031148;28;20182;-83
2022/04/09 12:11:54;;;;;;;6.17;2.90;;;12.70;57.90;;;;;;5014950;28;20626;-80
2022/04/09 12:14:20;;;;;;;7.97;3.23;;;12.60;57.00;;;;;;5027278;28;20712;-81
2022/04/09 12:16:47;;;;;;;6.97;3.20;;;12.70;56.40;;;;;;5027017;28;20217;-81
2022/04/09 12:19:13;;;;;;;5.80;3.00;;;12.40;56.40;;;;;;5023673;28;20189;-82
2022/04/09 12:21:39;;;;;;;8.03;3.07;;;13.10;57.10;;;;;;5033488;28;20278;-81
2022/04/09 12:24:10;;;;;;;6.40;2.20;;;13.50;57.30;;;;;;5017118;28;20182;-80
2022/04/09 12:26:37;;;;;;;4.83;2.27;;;14.10;55.20;;;;;;5001180;28;20202;-79
2022/04/09 12:29:23;;;;;;;6.37;2.57;;;14.60;52.70;;;;;;5035118;28;20186;-79
2022/04/09 12:31:51;;;;;;;6.77;2.43;;;15.00;52.10;;;;;;5017478;28;20643;-80
2022/04/09 12:34:17;;;;;;;8.37;2.73;;;14.70;51.10;;;;;;5002272;28;20197;-80
2022/04/09 12:37:06;;;;;;;7.00;2.60;;;14.80;51.50;;;;;;5034396;28;20209;-80
2022/04/09 12:39:40;;;;;;;4.70;2.20;;;15.40;51.30;;;;;;5034384;28;20171;-80
2022/04/09 12:42:06;;;;;;;5.93;2.43;;;15.70;49.60;;;;;;5033660;28;20294;-80
2022/04/09 12:44:34;;;;;;;6.73;3.03;;;16.20;49.90;;;;;;5033314;28;20193;-79
2022/04/09 12:47:02;;;;;;;6.53;2.80;;;16.70;48.40;;;;;;5033604;28;20787;-80
2022/04/09 12:49:29;;;;;;;8.10;3.50;;;;;;;;;;5034737;28;20170;-80
2022/04/09 12:51:55;;;;;;;7.27;2.80;;;;;;;;;;5034738;28;20506;-79
2022/04/09 12:54:22;;;;;;;6.83;2.80;;;;;;;;;;5033660;28;20229;-80
2022/04/09 12:56:48;;;;;;;5.27;2.03;;;;;;;;;;5016489;28;20225;-80
2022/04/09 12:59:15;;;;;;;6.67;2.70;;;;;;;;;;5033899;28;20522;-80
2022/04/09 13:01:41;;;;;;;3.87;2.00;;;;;;;;;;5032682;28;20167;-80
2022/04/09 13:04:08;;;;;;;5.17;2.23;;;;;;;;;;5035333;28;20194;-80
2022/04/09 13:06:35;;;;;;;4.50;2.13;;;;;;;;;;5016984;28;20208;-80
2022/04/09 13:09:01;;;;;;;4.90;2.50;;;;;;;;;;5034905;28;20167;-80
2022/04/09 13:11:27;;;;;;;3.93;2.03;;;;;;;;;;5033691;28;20209;-80
2022/04/09 13:13:53;;;;;;;4.83;2.00;;;;;;;;;;5032748;28;20211;-79
2022/04/09 13:16:20;;;;;;;5.57;2.33;;;;;;;;;;5032091;28;20220;-79
2022/04/09 13:18:46;;;;;;;5.80;2.60;;;;;;;;;;5032740;28;20174;-79
2022/04/09 13:21:12;;;;;;;8.00;2.90;;;;;;;;;;5034067;28;20225;-80
2022/04/09 13:23:39;;;;;;;6.20;2.93;;;;;;;;;;5034935;28;20194;-80
2022/04/09 13:26:05;;;;;;;7.23;2.70;;;;;;;;;;5011741;28;20184;-80
2022/04/09 13:28:31;;;;;;;8.60;2.70;;;;;;;;;;5013409;28;20234;-79
2022/04/09 13:30:58;;;;;;;5.07;2.50;;;;;;;;;;5028940;28;20244;-79
2022/04/09 13:33:26;;;;;;;5.63;2.33;;;;;;;;;;5028178;28;20214;-83
2022/04/09 13:35:52;;;;;;;7.47;2.90;;;;;;;;;;5033756;28;20202;-80
2022/04/09 13:38:18;;;;;;;7.00;2.60;;;;;;;;;;5016435;28;20214;-80
2022/04/09 13:40:44;;;;;;;6.40;2.83;;;;;;;;;;5033295;28;20762;-80
2022/04/09 13:43:11;;;;;;;5.27;2.43;;;;;;;;;;5016741;28;20203;-79
2022/04/09 13:45:37;;;;;;;5.87;2.63;;;;;;;;;;5038823;28;20530;-79
2022/04/09 13:48:04;;;;;;;4.63;2.27;;;;;;;;;;5038096;28;20178;-79
2022/04/09 13:50:30;;;;;;;5.43;2.60;;;;;;;;;;5038206;28;20171;-80
2022/04/09 13:52:58;;;;;;;8.43;2.83;;;;;;;;;;5037877;28;20190;-79
2022/04/09 13:55:25;;;;;;;5.93;2.57;;;;;;;;;;5044984;28;20193;-84
2022/04/09 13:57:52;;;;;;;7.17;2.80;;;;;;;;;;5016986;28;20217;-80
2022/04/09 14:00:19;;;;;;;6.83;3.00;;;;;;;;;;5017069;28;20186;-79
2022/04/09 14:02:45;;;;;;;8.20;3.07;;;;;;;;;;4999315;28;20203;-79
2022/04/09 14:05:12;;;;;;;5.40;2.23;;;;;;;;;;5016277;28;20211;-80
2022/04/09 14:07:39;;;;;;;7.00;2.40;;;;;;;;;;5016356;28;20246;-79
2022/04/09 14:10:05;;;;;;;6.23;2.40;;;;;;;;;;5021039;23;20222;-81
2022/04/09 14:12:32;;;;;;;6.03;2.17;;;;;;;;;;5014511;28;20215;-81
2022/04/09 14:14:58;;;;;;;4.67;2.07;;;;;;;;;;5013761;28;20186;-81
2022/04/09 14:17:24;;;;;;;5.27;2.10;;;;;;;;;;5014193;28;20214;-81
2022/04/09 14:19:51;;;;;;;5.20;2.00;;;;;;;;;;5010872;28;20644;-81
2022/04/09 14:22:17;;;;;;;4.37;1.67;;;;;;;;;;5012862;28;20207;-80
2022/04/09 14:24:43;;;;;;;4.47;2.20;;;;;;;;;;5013935;28;20271;-81
2022/04/09 14:27:10;;;;;;;3.97;1.90;;;;;;;;;;5012959;28;20179;-81